Time;durP1;ratioP1;P1;durP2;ratioP2;P2;SDS_P1;SDS_P2;PMS_P1;PMS_P2;Temp;Humidity;BMP_temperature;BMP_pressure;BME280_temperature;BME280_humidity;BME280_pressure;Samples;Min_cycle;Max_cycle;Signal;HPM_P1;HPM_P2
2022/12/30 00:02:26;;;;;;;10.37;2.60;;;;;;;;;;5100150;28;20230;-61
2022/12/30 00:04:53;;;;;;;11.00;2.80;;;;;;;;;;5094995;28;20198;-61
2022/12/30 00:07:22;;;;;;;12.37;2.77;;;;;;;;;;5099512;28;20208;-62
2022/12/30 00:09:49;;;;;;;10.20;2.60;;;;;;;;;;5097078;28;20292;-62
2022/12/30 00:34:28;;;;;;;6.90;2.23;;;;;;;;;;5097959;28;20193;-60
2022/12/30 00:36:56;;;;;;;9.30;2.47;;;;;;;;;;5101069;28;20190;-61
2022/12/30 00:39:25;;;;;;;9.30;2.37;;;;;;;;;;5097293;28;20221;-62
2022/12/30 00:44:37;;;;;;;6.90;2.40;;;;;;;;;;5099320;28;20334;-62
2022/12/30 00:47:05;;;;;;;10.93;2.53;;;;;;;;;;5098330;28;20206;-63
2022/12/30 00:57:47;;;;;;;9.93;2.50;;;;;;;;;;5098071;28;20208;-62
2022/12/30 01:00:14;;;;;;;13.70;2.90;;;;;;;;;;5098647;28;20198;-61
2022/12/30 01:02:42;;;;;;;14.33;3.10;;;;;;;;;;5100852;28;20228;-62
2022/12/30 01:05:09;;;;;;;10.93;2.67;;;;;;;;;;5097617;27;20194;-62
2022/12/30 01:07:36;;;;;;;8.83;2.50;;;;;;;;;;5098482;28;20193;-62
2022/12/30 01:10:05;;;;;;;11.40;2.63;;;;;;;;;;5094690;28;20217;-63
2022/12/30 01:12:32;;;;;;;15.47;2.77;;;;;;;;;;5101431;28;20202;-62
2022/12/30 01:14:59;;;;;;;10.93;2.43;;;;;;;;;;5102260;28;20239;-62
2022/12/30 01:17:30;;;;;;;10.07;2.50;;;;;;;;;;5103002;28;20292;-62
2022/12/30 01:19:57;;;;;;;13.80;3.10;;;;;;;;;;5099693;28;20210;-61
2022/12/30 01:22:24;;;;;;;12.77;2.77;;;;;;;;;;5096796;28;20214;-61
2022/12/30 01:24:52;;;;;;;11.27;2.50;;;;;;;;;;5095802;28;20194;-62
2022/12/30 01:27:20;;;;;;;7.90;2.47;;;;;;;;;;5100384;28;20201;-62
2022/12/30 01:29:47;;;;;;;11.67;2.50;;;;;;;;;;5099291;28;20213;-62
2022/12/30 01:32:16;;;;;;;9.70;2.67;;;;;;;;;;5100362;28;20198;-62
2022/12/30 01:34:43;;;;;;;12.33;2.97;;;;;;;;;;5100419;28;20210;-62
2022/12/30 01:37:11;;;;;;;9.13;2.50;;;;;;;;;;5100680;28;20193;-62
2022/12/30 01:39:38;;;;;;;11.07;2.70;;;;;;;;;;5100253;28;20206;-62
2022/12/30 01:42:05;;;;;;;11.47;2.73;;;;;;;;;;5098144;28;20220;-62
2022/12/30 01:44:51;;;;;;;11.80;3.03;;;;;;;;;;5094835;28;20463;-61
2022/12/30 01:47:21;;;;;;;8.57;2.23;;;;;;;;;;5096421;28;20223;-63
2022/12/30 01:49:50;;;;;;;14.60;2.60;;;;;;;;;;5092758;28;20209;-62
2022/12/30 01:52:19;;;;;;;10.47;2.50;;;;;;;;;;5097803;28;20198;-62
2022/12/30 01:54:47;;;;;;;8.70;2.37;;;;;;;;;;5100472;28;20194;-62
2022/12/30 01:57:15;;;;;;;14.50;3.10;;;;;;;;;;5095285;28;20209;-62
2022/12/30 01:59:42;;;;;;;11.33;2.77;;;;;;;;;;5100548;28;20201;-62
2022/12/30 02:02:09;;;;;;;12.07;2.27;;;;;;;;;;5097316;28;20209;-61
2022/12/30 02:04:37;;;;;;;15.20;2.47;;;;;;;;;;5096807;28;20202;-62
2022/12/30 02:07:07;;;;;;;13.10;3.40;;;;;;;;;;5096660;28;20194;-62
2022/12/30 02:09:34;;;;;;;12.17;2.80;;;;;;;;;;5095740;28;20204;-62
2022/12/30 02:12:01;;;;;;;13.47;3.07;;;;;;;;;;5094452;28;20201;-62
2022/12/30 02:14:30;;;;;;;16.27;3.10;;;;;;;;;;5095515;28;20233;-62
2022/12/30 02:17:01;;;;;;;11.93;2.70;;;;;;;;;;5094786;28;20198;-62
2022/12/30 02:19:46;;;;;;;12.30;3.23;;;;;;;;;;5105927;28;20210;-62
2022/12/30 02:22:18;;;;;;;13.10;3.00;;;;;;;;;;5100732;28;20218;-61
2022/12/30 02:25:04;;;;;;;10.27;2.87;;;;;;;;;;5100252;28;20209;-62
2022/12/30 02:27:40;;;;;;;12.13;3.23;;;;;;;;;;5103191;28;20202;-62
2022/12/30 02:30:09;;;;;;;12.23;2.80;;;;;;;;;;5099391;28;20193;-62
2022/12/30 02:32:59;;;;;;;13.43;3.30;;;;;;;;;;5098886;28;20202;-62
2022/12/30 02:35:29;;;;;;;11.00;3.10;;;;;;;;;;5104636;28;20247;-62
2022/12/30 02:38:01;;;;;;;14.83;3.17;;;;;;;;;;5100369;28;20202;-62
2022/12/30 02:44:36;;;;;;;10.50;3.00;;;;;;;;;;5103070;28;20291;-62
2022/12/30 02:46:09;;;;;;;13.43;3.27;;;;;;;;;;5104253;28;20201;-62
2022/12/30 02:48:40;;;;;;;10.57;2.87;;;;;;;;;;5103077;28;20197;-62
2022/12/30 02:53:53;;;;;;;10.23;2.63;;;;;;;;;;5103772;28;20200;-62
2022/12/30 02:56:20;;;;;;;9.67;3.20;;;;;;;;;;5102007;28;20229;-61
2022/12/30 02:58:50;;;;;;;11.13;3.10;;;;;;;;;;5098447;28;20198;-61
2022/12/30 03:04:12;;;;;;;11.37;3.00;;;;;;;;;;5082652;28;20206;-62
2022/12/30 03:06:52;;;;;;;14.00;3.20;;;;;;;;;;5100547;28;20202;-62
2022/12/30 03:09:24;;;;;;;11.40;3.60;;;;;;;;;;5101803;28;20205;-61
2022/12/30 03:11:54;;;;;;;12.73;2.87;;;;;;;;;;5099428;28;20202;-61
2022/12/30 03:14:24;;;;;;;10.83;2.70;;;;;;;;;;5099647;28;20233;-61
2022/12/30 03:16:53;;;;;;;10.77;2.50;;;;;;;;;;5097001;28;20209;-62
2022/12/30 03:19:23;;;;;;;13.33;2.80;;;;;;;;;;5105144;28;20202;-62
2022/12/30 03:21:52;;;;;;;13.77;2.83;;;;;;;;;;5100592;28;20216;-62
2022/12/30 03:27:07;;;;;;;11.57;2.87;;;;;;;;;;5100814;28;20388;-62
2022/12/30 03:29:37;;;;;;;8.70;2.60;;;;;;;;;;5098537;28;20195;-60
2022/12/30 03:32:05;;;;;;;10.67;2.70;;;;;;;;;;5099214;28;20368;-62
2022/12/30 03:34:33;;;;;;;13.97;3.00;;;;;;;;;;5104161;27;20204;-62
2022/12/30 03:37:04;;;;;;;6.67;2.27;;;;;;;;;;5097783;28;20198;-61
2022/12/30 03:39:34;;;;;;;11.77;2.77;;;;;;;;;;5100605;28;20202;-62
2022/12/30 03:42:02;;;;;;;12.27;3.50;;;;;;;;;;5094820;28;20210;-62
2022/12/30 03:44:29;;;;;;;10.30;2.33;;;;;;;;;;5099762;28;20205;-62
2022/12/30 03:46:56;;;;;;;12.27;3.00;;;;;;;;;;5098730;28;20198;-62
2022/12/30 03:49:23;;;;;;;10.77;2.50;;;;;;;;;;5096802;28;20202;-60
2022/12/30 03:51:52;;;;;;;9.70;2.30;;;;;;;;;;5100654;28;20190;-61
2022/12/30 03:54:19;;;;;;;10.27;2.60;;;;;;;;;;5102252;28;20216;-61
2022/12/30 03:56:46;;;;;;;12.93;2.90;;;;;;;;;;5100249;28;20198;-62
2022/12/30 03:59:13;;;;;;;9.50;2.97;;;;;;;;;;5100951;28;20198;-62
2022/12/30 04:01:40;;;;;;;11.03;2.50;;;;;;;;;;5098247;28;20228;-61
2022/12/30 04:04:07;;;;;;;12.83;2.97;;;;;;;;;;5095728;28;20198;-62
2022/12/30 04:06:34;;;;;;;7.30;2.20;;;;;;;;;;5098307;28;20224;-62
2022/12/30 04:09:03;;;;;;;8.80;2.30;;;;;;;;;;5100715;28;20210;-62
2022/12/30 04:11:30;;;;;;;9.20;2.20;;;;;;;;;;5095939;28;20202;-61
2022/12/30 04:13:57;;;;;;;7.00;2.20;;;;;;;;;;5098259;28;20221;-61
2022/12/30 04:16:24;;;;;;;9.90;2.40;;;;;;;;;;5099640;28;20193;-62
2022/12/30 04:18:51;;;;;;;11.17;2.80;;;;;;;;;;5101960;28;20203;-62
2022/12/30 04:21:18;;;;;;;10.70;2.17;;;;;;;;;;5094400;28;20208;-62
2022/12/30 04:23:45;;;;;;;9.77;2.57;;;;;;;;;;5100149;28;20221;-62
2022/12/30 04:26:14;;;;;;;10.50;2.30;;;;;;;;;;5095597;28;20205;-62
2022/12/30 04:28:41;;;;;;;8.83;2.40;;;;;;;;;;5099235;28;20214;-62
2022/12/30 04:31:08;;;;;;;9.30;2.23;;;;;;;;;;5097057;28;20199;-62
2022/12/30 04:33:35;;;;;;;9.33;1.80;;;;;;;;;;5096104;28;20205;-62
2022/12/30 04:36:03;;;;;;;10.70;2.83;;;;;;;;;;5096830;28;20202;-62
2022/12/30 04:38:30;;;;;;;8.63;2.37;;;;;;;;;;5096273;28;20209;-63
2022/12/30 04:40:57;;;;;;;10.47;2.03;;;;;;;;;;5098801;28;20193;-61
2022/12/30 04:43:25;;;;;;;8.30;2.37;;;;;;;;;;5100461;28;20229;-62
2022/12/30 04:45:52;;;;;;;8.27;2.43;;;;;;;;;;5100522;28;20202;-62
2022/12/30 04:48:20;;;;;;;9.87;2.47;;;;;;;;;;5097593;28;20210;-61
2022/12/30 04:50:47;;;;;;;8.47;1.90;;;;;;;;;;5095349;28;20198;-62
2022/12/30 04:53:14;;;;;;;10.23;2.57;;;;;;;;;;5098031;28;20198;-62
2022/12/30 04:55:41;;;;;;;9.17;2.50;;;;;;;;;;5098728;28;20205;-62
2022/12/30 04:58:08;;;;;;;8.67;2.43;;;;;;;;;;5099495;28;20198;-61
2022/12/30 05:00:37;;;;;;;12.50;2.80;;;;;;;;;;5095249;28;20208;-62
2022/12/30 05:03:04;;;;;;;10.57;2.50;;;;;;;;;;5096538;28;20240;-61
2022/12/30 05:05:31;;;;;;;10.80;2.07;;;;;;;;;;5103241;28;20189;-60
2022/12/30 05:07:58;;;;;;;8.73;2.40;;;;;;;;;;5093648;28;20206;-60
2022/12/30 05:10:25;;;;;;;13.27;3.23;;;;;;;;;;5098932;28;20202;-62
2022/12/30 05:12:53;;;;;;;14.27;2.67;;;;;;;;;;5096065;28;20202;-62
2022/12/30 05:15:21;;;;;;;7.40;2.20;;;;;;;;;;5095711;28;20237;-62
2022/12/30 05:17:49;;;;;;;7.67;2.10;;;;;;;;;;5097636;28;20208;-62
2022/12/30 05:20:16;;;;;;;9.57;2.30;;;;;;;;;;5094972;28;20213;-62
2022/12/30 05:22:43;;;;;;;11.43;2.73;;;;;;;;;;5098082;28;20217;-62
2022/12/30 05:27:56;;;;;;;10.00;2.47;;;;;;;;;;5098222;28;20200;-62
2022/12/30 05:30:23;;;;;;;8.00;2.20;;;;;;;;;;5094610;28;20224;-61
2022/12/30 05:32:52;;;;;;;12.17;2.93;;;;;;;;;;5094868;28;20202;-62
2022/12/30 05:35:19;;;;;;;9.10;2.23;;;;;;;;;;5096839;28;20202;-62
2022/12/30 05:37:46;;;;;;;13.03;2.73;;;;;;;;;;5090801;28;20210;-61
2022/12/30 05:40:13;;;;;;;8.90;2.43;;;;;;;;;;5091616;28;20194;-61
2022/12/30 05:42:40;;;;;;;11.83;2.50;;;;;;;;;;5093329;28;20248;-62
2022/12/30 05:45:08;;;;;;;8.80;2.53;;;;;;;;;;5098597;28;20202;-62
2022/12/30 05:47:35;;;;;;;13.53;2.50;;;;;;;;;;5093879;28;20202;-61
2022/12/30 05:50:04;;;;;;;10.27;2.30;;;;;;;;;;5094735;28;20206;-61
2022/12/30 05:52:31;;;;;;;7.90;2.10;;;;;;;;;;5098078;28;20229;-62
2022/12/30 05:54:58;;;;;;;8.90;1.73;;;;;;;;;;5097889;28;20213;-61
2022/12/30 05:57:25;;;;;;;10.17;2.50;;;;;;;;;;5098344;28;20197;-61
2022/12/30 05:59:53;;;;;;;13.50;2.67;;;;;;;;;;5096424;28;20209;-61
2022/12/30 06:02:20;;;;;;;9.20;2.10;;;;;;;;;;5097514;28;20205;-61
2022/12/30 06:04:48;;;;;;;9.57;2.20;;;;;;;;;;5095768;28;20285;-62
2022/12/30 06:07:16;;;;;;;8.03;2.60;;;;;;;;;;5103971;28;20205;-62
2022/12/30 06:09:43;;;;;;;5.67;1.87;;;;;;;;;;5098439;28;20206;-61
2022/12/30 06:12:10;;;;;;;9.20;2.00;;;;;;;;;;5099747;28;20219;-62
2022/12/30 06:14:37;;;;;;;10.47;1.93;;;;;;;;;;5097975;28;20237;-61
2022/12/30 06:17:05;;;;;;;10.53;2.07;;;;;;;;;;5103838;28;20198;-62
2022/12/30 06:19:32;;;;;;;8.90;2.37;;;;;;;;;;5096462;28;20202;-61
2022/12/30 06:21:59;;;;;;;8.93;3.63;;;;;;;;;;5100439;28;20236;-61
2022/12/30 06:24:27;;;;;;;5.53;2.00;;;;;;;;;;5099409;28;20220;-60
2022/12/30 06:26:55;;;;;;;10.57;2.50;;;;;;;;;;5099547;28;20197;-60
2022/12/30 06:29:22;;;;;;;9.80;2.13;;;;;;;;;;5097434;28;20210;-56
2022/12/30 06:31:49;;;;;;;7.37;2.10;;;;;;;;;;5096641;28;20206;-62
2022/12/30 06:34:16;;;;;;;9.53;2.10;;;;;;;;;;5099279;28;20198;-61
2022/12/30 06:36:43;;;;;;;6.73;1.83;;;;;;;;;;5100853;28;20208;-62
2022/12/30 06:39:10;;;;;;;9.77;2.30;;;;;;;;;;5100615;28;20190;-61
2022/12/30 06:41:39;;;;;;;6.23;2.07;;;;;;;;;;5101640;28;20201;-61
2022/12/30 06:44:06;;;;;;;6.77;1.80;;;;;;;;;;5100979;28;20232;-62
2022/12/30 06:46:33;;;;;;;5.90;2.10;;;;;;;;;;5106057;28;20212;-61
2022/12/30 06:49:00;;;;;;;7.53;1.87;;;;;;;;;;5100178;28;20195;-62
2022/12/30 06:51:27;;;;;;;12.13;2.03;;;;;;;;;;5102760;28;20205;-62
2022/12/30 06:53:54;;;;;;;7.10;1.87;;;;;;;;;;5105765;28;20202;-62
2022/12/30 06:56:21;;;;;;;5.03;1.37;;;;;;;;;;5100050;28;20198;-62
2022/12/30 06:58:50;;;;;;;8.67;1.70;;;;;;;;;;5105015;28;20202;-62
2022/12/30 07:01:17;;;;;;;4.83;1.40;;;;;;;;;;5101402;28;20454;-62
2022/12/30 07:03:44;;;;;;;4.73;1.70;;;;;;;;;;5101951;28;20224;-62
2022/12/30 07:06:11;;;;;;;6.27;1.80;;;;;;;;;;5098013;28;20287;-62
2022/12/30 07:08:38;;;;;;;12.03;2.17;;;;;;;;;;5099341;28;20206;-62
2022/12/30 07:11:06;;;;;;;5.70;1.50;;;;;;;;;;5099915;28;20201;-62
2022/12/30 07:13:33;;;;;;;7.27;2.00;;;;;;;;;;5099202;28;20236;-62
2022/12/30 07:16:01;;;;;;;7.90;1.87;;;;;;;;;;5099453;28;20304;-62
2022/12/30 07:18:28;;;;;;;6.00;1.97;;;;;;;;;;5098996;28;20202;-61
2022/12/30 07:20:55;;;;;;;6.83;1.63;;;;;;;;;;5096042;28;20205;-61
2022/12/30 07:23:23;;;;;;;4.63;1.40;;;;;;;;;;5101219;28;20221;-62
2022/12/30 07:25:50;;;;;;;8.20;2.03;;;;;;;;;;5099091;28;20205;-62
2022/12/30 07:28:17;;;;;;;8.33;1.80;;;;;;;;;;5097505;28;20213;-62
2022/12/30 07:30:44;;;;;;;4.77;1.47;;;;;;;;;;5099612;28;20197;-62
2022/12/30 07:33:12;;;;;;;6.40;1.60;;;;;;;;;;5100424;28;20205;-63
2022/12/30 07:35:39;;;;;;;9.30;1.83;;;;;;;;;;5101104;28;20209;-62
2022/12/30 07:38:07;;;;;;;4.73;1.67;;;;;;;;;;5105244;28;20198;-62
2022/12/30 07:40:36;;;;;;;8.30;1.83;;;;;;;;;;5103825;28;20213;-62
2022/12/30 07:43:03;;;;;;;6.70;1.60;;;;;;;;;;5093362;28;20232;-62
2022/12/30 07:45:30;;;;;;;5.60;1.73;;;;;;;;;;5101102;28;20202;-62
2022/12/30 07:47:59;;;;;;;4.87;1.50;;;;;;;;;;5096592;28;20202;-62
2022/12/30 07:50:27;;;;;;;6.60;1.83;;;;;;;;;;5094628;28;20217;-62
2022/12/30 07:52:54;;;;;;;8.57;1.90;;;;;;;;;;5098507;28;20194;-62
2022/12/30 07:55:22;;;;;;;8.17;1.93;;;;;;;;;;5100953;28;20201;-62
2022/12/30 07:57:49;;;;;;;5.17;1.83;;;;;;;;;;5098135;28;20299;-62
2022/12/30 08:00:16;;;;;;;6.77;1.93;;;;;;;;;;5097626;28;20201;-62
2022/12/30 08:02:43;;;;;;;9.63;2.40;;;;;;;;;;5094927;28;20210;-62
2022/12/30 08:05:11;;;;;;;5.83;1.97;;;;;;;;;;5096671;28;20209;-63
2022/12/30 08:07:39;;;;;;;7.13;1.97;;;;;;;;;;5091531;28;20190;-62
2022/12/30 08:10:07;;;;;;;6.67;1.90;;;;;;;;;;5094905;28;20194;-63
2022/12/30 08:12:35;;;;;;;5.87;1.80;;;;;;;;;;5099042;28;20203;-62
2022/12/30 08:15:02;;;;;;;8.93;2.10;;;;;;;;;;5097287;28;20237;-61
2022/12/30 08:17:29;;;;;;;10.20;2.07;;;;;;;;;;5096083;28;20252;-62
2022/12/30 08:19:56;;;;;;;8.00;2.10;;;;;;;;;;5093876;28;20221;-62
2022/12/30 08:22:24;;;;;;;6.87;1.77;;;;;;;;;;5098119;28;20213;-62
2022/12/30 08:24:52;;;;;;;5.67;2.10;;;;;;;;;;5093600;28;20228;-62
2022/12/30 08:27:19;;;;;;;7.30;1.90;;;;;;;;;;5095534;28;20197;-62
2022/12/30 08:29:47;;;;;;;4.70;1.80;;;;;;;;;;5098572;28;20198;-62
2022/12/30 08:32:14;;;;;;;5.20;1.97;;;;;;;;;;5101407;28;20193;-61
2022/12/30 08:34:41;;;;;;;6.03;1.50;;;;;;;;;;5099047;28;20194;-63
2022/12/30 08:37:08;;;;;;;5.50;1.93;;;;;;;;;;5095970;28;20205;-63
2022/12/30 08:39:35;;;;;;;5.53;1.60;;;;;;;;;;5097671;28;20198;-62
2022/12/30 08:42:04;;;;;;;9.53;2.13;;;;;;;;;;5099461;28;20194;-60
2022/12/30 08:44:31;;;;;;;8.47;2.00;;;;;;;;;;5101870;28;20237;-61
2022/12/30 08:46:58;;;;;;;7.20;1.80;;;;;;;;;;5102937;28;20206;-62
2022/12/30 08:49:25;;;;;;;4.37;1.70;;;;;;;;;;5094325;28;20217;-62
2022/12/30 08:51:52;;;;;;;5.07;1.90;;;;;;;;;;5098445;28;20200;-58
2022/12/30 08:54:20;;;;;;;7.57;1.90;;;;;;;;;;5098194;28;20193;-62
2022/12/30 08:56:48;;;;;;;5.97;1.87;;;;;;;;;;5094736;28;20206;-62
2022/12/30 08:59:18;;;;;;;5.80;1.73;;;;;;;;;;5091293;28;20214;-63
2022/12/30 09:01:45;;;;;;;4.93;2.17;;;;;;;;;;5096568;28;20201;-62
2022/12/30 09:04:13;;;;;;;5.13;1.77;;;;;;;;;;5096410;28;20205;-61
2022/12/30 09:06:41;;;;;;;4.50;1.83;;;;;;;;;;5091210;28;20204;-62
2022/12/30 09:09:09;;;;;;;4.50;1.90;;;;;;;;;;5097993;28;20197;-62
2022/12/30 09:11:38;;;;;;;4.60;1.63;;;;;;;;;;5094699;28;20223;-62
2022/12/30 09:14:06;;;;;;;6.80;2.47;;;;;;;;;;5085728;28;20233;-61
2022/12/30 09:16:35;;;;;;;3.47;1.60;;;;;;;;;;5095823;28;20212;-62
2022/12/30 09:19:02;;;;;;;3.83;1.63;;;;;;;;;;5104293;28;20197;-61
2022/12/30 09:21:29;;;;;;;5.73;1.87;;;;;;;;;;5106857;28;20229;-62
2022/12/30 09:23:56;;;;;;;4.93;1.53;;;;;;;;;;5100465;28;20209;-61
2022/12/30 09:26:24;;;;;;;2.77;1.67;;;;;;;;;;5099040;28;20202;-62
2022/12/30 09:28:51;;;;;;;4.03;2.07;;;;;;;;;;5103313;28;20221;-62
2022/12/30 09:31:19;;;;;;;4.53;2.07;;;;;;;;;;5103258;28;20193;-61
2022/12/30 09:33:47;;;;;;;7.70;2.00;;;;;;;;;;5103771;28;20205;-62
2022/12/30 09:36:14;;;;;;;4.03;1.60;;;;;;;;;;5105880;28;20201;-60
2022/12/30 09:38:43;;;;;;;5.30;2.10;;;;;;;;;;5102070;28;20206;-61
2022/12/30 09:41:12;;;;;;;4.70;2.10;;;;;;;;;;5106040;28;20263;-61
2022/12/30 09:43:40;;;;;;;3.13;2.07;;;;;;;;;;5103711;28;20228;-62
2022/12/30 09:46:16;;;;;;;3.20;1.77;;;;;;;;;;5104972;28;20201;-61
2022/12/30 09:48:46;;;;;;;7.97;2.07;;;;;;;;;;5104070;28;20217;-61
2022/12/30 09:51:17;;;;;;;4.17;1.70;;;;;;;;;;5099300;28;20209;-61
2022/12/30 09:53:47;;;;;;;4.43;1.87;;;;;;;;;;5105005;28;20201;-62
2022/12/30 09:56:15;;;;;;;1.97;1.80;;;;;;;;;;5096855;28;20202;-62
2022/12/30 09:58:44;;;;;;;5.90;2.60;;;;;;;;;;5103556;28;20228;-61
2022/12/30 10:01:19;;;;;;;6.60;3.33;;;;;;;;;;5101293;28;20206;-62
2022/12/30 10:03:46;;;;;;;6.53;4.10;;;;;;;;;;5100237;28;20250;-62
2022/12/30 10:06:19;;;;;;;7.57;3.47;;;;;;;;;;5102703;28;20205;-62
2022/12/30 10:09:05;;;;;;;3.97;2.73;;;;;;;;;;5098613;28;20195;-62
2022/12/30 10:11:35;;;;;;;4.67;2.00;;;;;;;;;;5099894;28;20213;-62
2022/12/30 10:14:08;;;;;;;8.30;2.87;;;;;;;;;;5102742;28;20245;-62
2022/12/30 10:16:40;;;;;;;8.67;2.00;;;;;;;;;;5100929;28;20284;-62
2022/12/30 10:19:13;;;;;;;4.63;1.43;;;;;;;;;;5103494;28;20217;-63
2022/12/30 10:21:54;;;;;;;5.30;1.87;;;;;;;;;;5097525;28;20223;-62
2022/12/30 10:24:32;;;;;;;4.47;1.70;;;;;;;;;;5103983;28;20221;-62
2022/12/30 10:27:01;;;;;;;7.87;1.80;;;;;;;;;;5100012;28;20210;-62
2022/12/30 10:29:30;;;;;;;3.90;1.90;;;;;;;;;;5103662;28;20206;-61
2022/12/30 10:31:59;;;;;;;5.10;1.83;;;;;;;;;;5107335;28;20217;-62
2022/12/30 10:34:29;;;;;;;6.67;1.70;;;;;;;;;;5103206;28;20208;-62
2022/12/30 10:37:00;;;;;;;2.90;1.40;;;;;;;;;;5097795;28;20202;-62
2022/12/30 10:39:31;;;;;;;4.30;1.57;;;;;;;;;;5102909;28;20213;-62
2022/12/30 10:42:08;;;;;;;4.43;1.60;;;;;;;;;;5108335;28;20221;-62
2022/12/30 10:44:39;;;;;;;3.67;1.20;;;;;;;;;;5104245;28;20238;-62
2022/12/30 10:47:18;;;;;;;3.13;1.40;;;;;;;;;;5102577;28;20204;-62
2022/12/30 10:50:00;;;;;;;4.03;1.40;;;;;;;;;;5095918;28;20248;-62
2022/12/30 10:52:29;;;;;;;4.83;1.40;;;;;;;;;;5102191;28;20216;-62
2022/12/30 10:54:56;;;;;;;3.80;1.40;;;;;;;;;;5103013;28;20206;-62
2022/12/30 10:57:26;;;;;;;7.17;1.60;;;;;;;;;;5103995;28;20209;-61
2022/12/30 10:59:56;;;;;;;3.10;1.37;;;;;;;;;;5107786;28;20213;-62
2022/12/30 11:02:26;;;;;;;4.70;1.50;;;;;;;;;;5102422;28;20213;-62
2022/12/30 11:04:53;;;;;;;3.40;1.33;;;;;;;;;;5106126;28;20213;-62
2022/12/30 11:07:20;;;;;;;2.40;1.20;;;;;;;;;;5105341;28;20206;-63
2022/12/30 11:09:49;;;;;;;6.10;1.47;;;;;;;;;;5104183;28;20285;-62
2022/12/30 11:15:09;;;;;;;2.90;1.60;;;;;;;;;;5109309;28;20239;-62
2022/12/30 11:17:40;;;;;;;4.13;1.40;;;;;;;;;;5106912;28;20210;-62
2022/12/30 11:20:20;;;;;;;5.43;1.37;;;;;;;;;;5107946;28;20205;-62
2022/12/30 11:22:48;;;;;;;4.43;1.67;;;;;;;;;;5102434;28;20217;-62
2022/12/30 11:25:22;;;;;;;6.37;1.60;;;;;;;;;;5102980;28;20241;-62
2022/12/30 11:27:51;;;;;;;4.27;1.60;;;;;;;;;;5102524;28;20214;-62
2022/12/30 11:30:29;;;;;;;4.50;2.03;;;;;;;;;;5104653;28;20198;-61
2022/12/30 11:32:57;;;;;;;5.07;1.80;;;;;;;;;;5104246;28;20221;-62
2022/12/30 11:35:37;;;;;;;4.47;1.53;;;;;;;;;;5111232;28;20221;-61
2022/12/30 11:38:07;;;;;;;4.77;1.97;;;;;;;;;;5105056;28;20201;-61
2022/12/30 11:40:36;;;;;;;5.30;1.53;;;;;;;;;;5104824;28;20210;-60
2022/12/30 11:43:06;;;;;;;5.27;1.90;;;;;;;;;;5103161;28;20205;-61
2022/12/30 11:45:33;;;;;;;5.03;1.90;;;;;;;;;;5101831;28;20218;-61
2022/12/30 11:48:00;;;;;;;2.47;1.37;;;;;;;;;;5104929;28;20355;-61
2022/12/30 11:50:27;;;;;;;4.40;1.57;;;;;;;;;;5100358;28;20210;-62
2022/12/30 11:53:00;;;;;;;3.10;1.70;;;;;;;;;;5107345;28;20213;-61
2022/12/30 11:55:27;;;;;;;4.50;1.60;;;;;;;;;;5097291;28;20210;-62
2022/12/30 11:57:58;;;;;;;3.63;1.87;;;;;;;;;;5107209;28;20297;-62
2022/12/30 12:00:29;;;;;;;4.00;1.80;;;;;;;;;;5098881;28;20194;-62
2022/12/30 12:02:59;;;;;;;2.60;1.40;;;;;;;;;;5098133;28;20206;-62
2022/12/30 12:05:28;;;;;;;5.63;1.63;;;;;;;;;;5100828;28;20320;-62
2022/12/30 12:07:57;;;;;;;5.37;1.60;;;;;;;;;;5104839;28;20198;-63
2022/12/30 12:10:25;;;;;;;3.87;1.27;;;;;;;;;;5098809;28;20198;-62
2022/12/30 12:12:55;;;;;;;4.97;2.03;;;;;;;;;;5102232;28;20208;-62
2022/12/30 12:15:28;;;;;;;2.60;1.73;;;;;;;;;;5104441;28;20236;-62
2022/12/30 12:17:58;;;;;;;4.20;1.53;;;;;;;;;;5108817;28;20232;-60
2022/12/30 12:20:32;;;;;;;4.90;1.47;;;;;;;;;;5102998;28;20206;-61
2022/12/30 12:23:02;;;;;;;3.60;1.33;;;;;;;;;;5100458;28;20214;-62
2022/12/30 12:25:33;;;;;;;3.67;1.30;;;;;;;;;;5103649;28;20232;-62
2022/12/30 12:28:00;;;;;;;4.73;1.80;;;;;;;;;;5104071;28;20217;-62
2022/12/30 12:30:36;;;;;;;4.73;1.43;;;;;;;;;;5104530;28;20478;-62
2022/12/30 12:33:08;;;;;;;4.47;1.53;;;;;;;;;;5102359;28;20201;-62
2022/12/30 12:35:38;;;;;;;2.97;1.63;;;;;;;;;;5105922;28;20198;-61
2022/12/30 12:38:16;;;;;;;3.57;1.27;;;;;;;;;;5105182;28;20209;-62
2022/12/30 12:41:07;;;;;;;3.20;1.60;;;;;;;;;;5101649;28;20262;-62
2022/12/30 12:43:40;;;;;;;5.33;1.80;;;;;;;;;;5103341;28;20197;-59
2022/12/30 12:46:14;;;;;;;4.17;1.53;;;;;;;;;;5101995;28;20232;-61
2022/12/30 12:48:52;;;;;;;3.30;1.40;;;;;;;;;;5101759;28;20575;-62
2022/12/30 12:51:27;;;;;;;4.57;1.23;;;;;;;;;;5104388;28;20193;-62
2022/12/30 12:54:12;;;;;;;3.07;1.60;;;;;;;;;;5100550;28;20524;-61
2022/12/30 12:56:51;;;;;;;3.33;1.50;;;;;;;;;;5102171;28;20209;-62
2022/12/30 12:59:27;;;;;;;2.80;1.60;;;;;;;;;;5100425;28;20205;-62
2022/12/30 13:01:59;;;;;;;2.47;1.20;;;;;;;;;;5096323;28;20205;-62
2022/12/30 13:04:32;;;;;;;3.13;1.50;;;;;;;;;;5097599;28;20202;-60
2022/12/30 13:07:05;;;;;;;1.30;1.20;;;;;;;;;;5097819;28;20209;-61
2022/12/30 13:09:43;;;;;;;4.20;1.40;;;;;;;;;;5102147;28;20197;-61
2022/12/30 13:12:14;;;;;;;3.47;1.33;;;;;;;;;;5101977;28;20197;-62
2022/12/30 13:14:44;;;;;;;5.77;1.60;;;;;;;;;;5096105;28;20226;-62
2022/12/30 13:17:15;;;;;;;2.30;1.20;;;;;;;;;;5105357;28;20194;-61
2022/12/30 13:19:44;;;;;;;4.20;1.27;;;;;;;;;;5096373;28;20203;-62
2022/12/30 13:22:13;;;;;;;2.03;1.20;;;;;;;;;;5097431;28;20202;-62
2022/12/30 13:24:42;;;;;;;2.87;1.10;;;;;;;;;;5100476;28;20221;-61
2022/12/30 13:27:14;;;;;;;3.70;1.40;;;;;;;;;;5097222;28;20296;-62
2022/12/30 13:29:41;;;;;;;3.40;1.33;;;;;;;;;;5098769;28;20201;-62
2022/12/30 13:32:11;;;;;;;2.00;1.17;;;;;;;;;;5104760;28;20193;-61
2022/12/30 13:34:43;;;;;;;3.67;1.30;;;;;;;;;;5093069;28;20209;-62
2022/12/30 13:37:13;;;;;;;1.73;1.20;;;;;;;;;;5087675;28;20197;-61
2022/12/30 13:39:43;;;;;;;2.83;1.27;;;;;;;;;;5064368;28;20219;-61
2022/12/30 13:42:25;;;;;;;3.00;1.53;;;;;;;;;;5044421;28;20196;-62
2022/12/30 13:44:52;;;;;;;2.10;1.30;;;;;;;;;;5045584;28;20215;-61
2022/12/30 13:47:28;;;;;;;1.50;1.20;;;;;;;;;;5047466;28;20207;-61
2022/12/30 13:49:57;;;;;;;2.10;1.40;;;;;;;;;;5046485;28;20195;-61
2022/12/30 13:52:25;;;;;;;1.57;1.47;;;;;;;;;;5050247;28;20203;-61
2022/12/30 13:54:53;;;;;;;1.60;1.33;;;;;;;;;;5050829;28;20195;-62
2022/12/30 13:57:30;;;;;;;2.93;1.47;;;;;;;;;;5049003;28;20195;-60
2022/12/30 14:00:08;;;;;;;2.90;1.60;;;;;;;;;;5046892;28;20226;-61
2022/12/30 14:02:48;;;;;;;4.63;1.30;;;;;;;;;;5048616;28;20207;-61
2022/12/30 14:05:33;;;;;;;1.30;1.20;;;;;;;;;;5049748;28;20380;-62
2022/12/30 14:08:00;;;;;;;3.17;1.47;;;;;;;;;;5047163;28;20210;-62
2022/12/30 14:10:40;;;;;;;1.50;1.40;;;;;;;;;;5048871;28;20202;-62
2022/12/30 14:13:14;;;;;;;1.67;1.40;;;;;;;;;;5044511;28;20207;-61
2022/12/30 14:15:52;;;;;;;2.20;1.50;;;;;;;;;;5052186;28;20207;-61
2022/12/30 14:18:21;;;;;;;1.60;1.50;;;;;;;;;;5052932;28;20203;-62
2022/12/30 14:20:55;;;;;;;1.63;1.53;;;;;;;;;;5053306;28;20203;-61
2022/12/30 14:23:56;;;;;;;2.70;1.60;;;;;;;;;;5053347;28;20215;-60
2022/12/30 14:26:38;;;;;;;1.40;1.30;;;;;;;;;;4969043;28;20222;-62
2022/12/30 14:29:16;;;;;;;2.47;1.53;;;;;;;;;;4972197;28;20198;-62
2022/12/30 14:31:46;;;;;;;1.60;1.50;;;;;;;;;;5022686;28;20204;-62
2022/12/30 14:34:22;;;;;;;2.07;1.50;;;;;;;;;;5053252;28;20208;-61
2022/12/30 14:36:58;;;;;;;1.60;1.50;;;;;;;;;;5053578;28;20219;-62
2022/12/30 14:39:26;;;;;;;1.40;1.27;;;;;;;;;;5050828;28;20203;-61
2022/12/30 14:41:53;;;;;;;1.60;1.50;;;;;;;;;;5051671;28;20210;-62
2022/12/30 14:44:22;;;;;;;2.10;1.60;;;;;;;;;;5049423;28;20214;-62
2022/12/30 14:46:52;;;;;;;1.87;1.50;;;;;;;;;;5054098;28;20216;-62
2022/12/30 14:49:21;;;;;;;2.77;1.60;;;;;;;;;;5053662;28;20219;-62
2022/12/30 14:51:49;;;;;;;2.33;1.80;;;;;;;;;;5054186;28;20230;-62
2022/12/30 14:54:19;;;;;;;1.60;1.50;;;;;;;;;;5053319;28;20215;-62
2022/12/30 14:56:49;;;;;;;1.93;1.83;;;;;;;;;;5052607;28;20199;-62
2022/12/30 14:59:17;;;;;;;1.80;1.50;;;;;;;;;;5052410;28;20204;-61
2022/12/30 15:01:44;;;;;;;2.77;1.80;;;;;;;;;;5050896;28;20196;-62
2022/12/30 15:04:12;;;;;;;1.80;1.70;;;;;;;;;;5048253;28;20207;-61
2022/12/30 15:06:41;;;;;;;1.70;1.60;;;;;;;;;;5051205;28;20484;-59
2022/12/30 15:09:09;;;;;;;1.80;1.70;;;;;;;;;;5044413;28;20211;-62
2022/12/30 15:11:38;;;;;;;1.30;1.30;;;;;;;;;;5050371;28;20211;-61
2022/12/30 15:14:13;;;;;;;1.60;1.50;;;;;;;;;;5049254;28;20234;-61
2022/12/30 15:16:40;;;;;;;1.60;1.50;;;;;;;;;;5046195;28;20199;-61
2022/12/30 15:19:21;;;;;;;1.60;1.50;;;;;;;;;;5045940;28;20200;-59
2022/12/30 15:21:48;;;;;;;1.57;1.47;;;;;;;;;;5049091;28;20206;-61
2022/12/30 15:24:18;;;;;;;1.63;1.53;;;;;;;;;;5048920;28;20199;-61
2022/12/30 15:26:51;;;;;;;1.47;1.33;;;;;;;;;;5045545;28;20219;-61
2022/12/30 15:29:20;;;;;;;1.70;1.60;;;;;;;;;;5047724;28;20204;-61
2022/12/30 15:31:51;;;;;;;1.83;1.50;;;;;;;;;;5048697;28;20261;-61
2022/12/30 15:34:19;;;;;;;1.30;1.27;;;;;;;;;;5046356;28;20206;-62
2022/12/30 15:36:46;;;;;;;1.57;1.43;;;;;;;;;;5048037;28;20459;-62
2022/12/30 15:39:16;;;;;;;1.43;1.33;;;;;;;;;;5051632;28;20187;-60
2022/12/30 15:41:43;;;;;;;1.60;1.50;;;;;;;;;;5050438;28;20207;-61
2022/12/30 15:44:14;;;;;;;2.60;1.40;;;;;;;;;;5048155;28;20214;-62
2022/12/30 15:46:49;;;;;;;1.40;1.30;;;;;;;;;;5048330;28;20231;-61